sensor_id;sensor_type;location;lat;lon;timestamp;P1;durP1;ratioP1;P2;durP2;ratioP2
64887;SDS011;51386;53.082;8.816;2022-12-10T00:01:07;39.60;;;23.80;;
64887;SDS011;51386;53.082;8.816;2022-12-10T00:03:36;38.70;;;23.53;;
64887;SDS011;51386;53.082;8.816;2022-12-10T00:06:05;38.50;;;22.80;;
64887;SDS011;51386;53.082;8.816;2022-12-10T00:08:35;34.63;;;22.33;;
64887;SDS011;51386;53.082;8.816;2022-12-10T00:11:04;39.93;;;23.80;;
64887;SDS011;51386;53.082;8.816;2022-12-10T00:13:33;37.80;;;23.93;;
64887;SDS011;51386;53.082;8.816;2022-12-10T00:16:04;42.40;;;25.40;;
64887;SDS011;51386;53.082;8.816;2022-12-10T00:18:34;42.20;;;24.67;;
64887;SDS011;51386;53.082;8.816;2022-12-10T00:21:02;35.27;;;23.40;;
64887;SDS011;51386;53.082;8.816;2022-12-10T00:23:31;38.17;;;24.03;;
64887;SDS011;51386;53.082;8.816;2022-12-10T00:26:01;40.63;;;23.63;;
64887;SDS011;51386;53.082;8.816;2022-12-10T00:28:30;36.60;;;22.20;;
64887;SDS011;51386;53.082;8.816;2022-12-10T00:31:01;38.73;;;23.33;;
64887;SDS011;51386;53.082;8.816;2022-12-10T00:33:32;35.07;;;21.87;;
64887;SDS011;51386;53.082;8.816;2022-12-10T00:36:03;37.20;;;23.07;;
64887;SDS011;51386;53.082;8.816;2022-12-10T00:38:32;35.67;;;22.27;;
64887;SDS011;51386;53.082;8.816;2022-12-10T00:40:59;37.97;;;23.33;;
64887;SDS011;51386;53.082;8.816;2022-12-10T00:43:26;37.20;;;24.27;;
64887;SDS011;51386;53.082;8.816;2022-12-10T00:45:53;34.97;;;22.03;;
64887;SDS011;51386;53.082;8.816;2022-12-10T00:48:22;30.17;;;20.50;;
64887;SDS011;51386;53.082;8.816;2022-12-10T00:50:56;34.60;;;22.73;;
64887;SDS011;51386;53.082;8.816;2022-12-10T00:53:26;39.10;;;23.47;;
64887;SDS011;51386;53.082;8.816;2022-12-10T00:55:54;39.73;;;22.83;;
64887;SDS011;51386;53.082;8.816;2022-12-10T00:58:22;38.27;;;23.60;;
64887;SDS011;51386;53.082;8.816;2022-12-10T01:00:52;39.13;;;23.13;;
64887;SDS011;51386;53.082;8.816;2022-12-10T01:03:19;35.07;;;23.13;;
64887;SDS011;51386;53.082;8.816;2022-12-10T01:05:47;36.00;;;23.40;;
64887;SDS011;51386;53.082;8.816;2022-12-10T01:08:14;36.67;;;22.50;;
64887;SDS011;51386;53.082;8.816;2022-12-10T01:10:41;36.50;;;22.40;;
64887;SDS011;51386;53.082;8.816;2022-12-10T01:13:08;41.67;;;25.47;;
64887;SDS011;51386;53.082;8.816;2022-12-10T01:15:36;40.47;;;23.77;;
64887;SDS011;51386;53.082;8.816;2022-12-10T01:18:05;35.27;;;22.60;;
64887;SDS011;51386;53.082;8.816;2022-12-10T01:20:34;34.77;;;22.43;;
64887;SDS011;51386;53.082;8.816;2022-12-10T01:23:03;36.90;;;23.40;;
64887;SDS011;51386;53.082;8.816;2022-12-10T01:25:30;36.17;;;22.43;;
64887;SDS011;51386;53.082;8.816;2022-12-10T01:27:57;34.67;;;23.03;;
64887;SDS011;51386;53.082;8.816;2022-12-10T01:30:24;33.53;;;22.33;;
64887;SDS011;51386;53.082;8.816;2022-12-10T01:32:51;37.83;;;23.80;;
64887;SDS011;51386;53.082;8.816;2022-12-10T01:35:18;36.37;;;22.43;;
64887;SDS011;51386;53.082;8.816;2022-12-10T01:37:45;32.30;;;21.13;;
64887;SDS011;51386;53.082;8.816;2022-12-10T01:40:14;34.30;;;20.90;;
64887;SDS011;51386;53.082;8.816;2022-12-10T01:42:41;32.43;;;20.33;;
64887;SDS011;51386;53.082;8.816;2022-12-10T01:45:10;36.33;;;21.77;;
64887;SDS011;51386;53.082;8.816;2022-12-10T01:47:38;36.40;;;22.73;;
64887;SDS011;51386;53.082;8.816;2022-12-10T01:50:06;36.47;;;23.63;;
64887;SDS011;51386;53.082;8.816;2022-12-10T01:52:35;30.43;;;19.90;;
64887;SDS011;51386;53.082;8.816;2022-12-10T01:55:07;34.63;;;21.67;;
64887;SDS011;51386;53.082;8.816;2022-12-10T01:58:08;37.20;;;22.67;;
64887;SDS011;51386;53.082;8.816;2022-12-10T02:00:37;36.93;;;23.17;;
64887;SDS011;51386;53.082;8.816;2022-12-10T02:03:13;33.27;;;22.53;;
64887;SDS011;51386;53.082;8.816;2022-12-10T02:05:49;33.93;;;20.83;;
64887;SDS011;51386;53.082;8.816;2022-12-10T02:08:24;34.20;;;22.47;;
64887;SDS011;51386;53.082;8.816;2022-12-10T02:10:59;36.00;;;22.17;;
64887;SDS011;51386;53.082;8.816;2022-12-10T02:13:40;36.33;;;22.27;;
64887;SDS011;51386;53.082;8.816;2022-12-10T02:16:12;38.97;;;23.17;;
64887;SDS011;51386;53.082;8.816;2022-12-10T02:18:46;39.67;;;24.17;;
64887;SDS011;51386;53.082;8.816;2022-12-10T02:21:21;34.07;;;22.87;;
64887;SDS011;51386;53.082;8.816;2022-12-10T02:23:57;35.80;;;22.03;;
64887;SDS011;51386;53.082;8.816;2022-12-10T02:26:32;34.00;;;20.93;;
64887;SDS011;51386;53.082;8.816;2022-12-10T02:29:12;34.87;;;21.27;;
64887;SDS011;51386;53.082;8.816;2022-12-10T02:31:48;34.07;;;21.87;;
64887;SDS011;51386;53.082;8.816;2022-12-10T02:34:21;36.33;;;23.53;;
64887;SDS011;51386;53.082;8.816;2022-12-10T02:36:53;33.33;;;20.90;;
64887;SDS011;51386;53.082;8.816;2022-12-10T02:39:25;31.87;;;21.40;;
64887;SDS011;51386;53.082;8.816;2022-12-10T02:42:02;37.33;;;22.67;;
64887;SDS011;51386;53.082;8.816;2022-12-10T02:44:34;34.73;;;20.47;;
64887;SDS011;51386;53.082;8.816;2022-12-10T02:47:05;31.90;;;21.67;;
64887;SDS011;51386;53.082;8.816;2022-12-10T02:49:35;34.00;;;21.87;;
64887;SDS011;51386;53.082;8.816;2022-12-10T02:52:06;33.47;;;20.90;;
64887;SDS011;51386;53.082;8.816;2022-12-10T02:54:37;32.40;;;21.43;;
64887;SDS011;51386;53.082;8.816;2022-12-10T02:57:23;32.97;;;21.93;;
64887;SDS011;51386;53.082;8.816;2022-12-10T03:00:08;36.10;;;23.57;;
64887;SDS011;51386;53.082;8.816;2022-12-10T03:02:45;31.50;;;20.17;;
64887;SDS011;51386;53.082;8.816;2022-12-10T03:05:30;37.87;;;22.97;;
64887;SDS011;51386;53.082;8.816;2022-12-10T03:08:08;32.93;;;20.70;;
64887;SDS011;51386;53.082;8.816;2022-12-10T03:10:42;32.17;;;20.17;;
64887;SDS011;51386;53.082;8.816;2022-12-10T03:13:19;33.27;;;20.27;;
64887;SDS011;51386;53.082;8.816;2022-12-10T03:15:56;30.53;;;18.87;;
64887;SDS011;51386;53.082;8.816;2022-12-10T03:18:28;31.07;;;19.17;;
64887;SDS011;51386;53.082;8.816;2022-12-10T03:21:01;31.97;;;20.40;;
64887;SDS011;51386;53.082;8.816;2022-12-10T03:23:32;28.43;;;18.07;;
64887;SDS011;51386;53.082;8.816;2022-12-10T03:26:03;31.53;;;20.73;;
64887;SDS011;51386;53.082;8.816;2022-12-10T03:28:32;31.53;;;19.90;;
64887;SDS011;51386;53.082;8.816;2022-12-10T03:31:10;31.00;;;20.77;;
64887;SDS011;51386;53.082;8.816;2022-12-10T03:33:41;32.73;;;20.73;;
64887;SDS011;51386;53.082;8.816;2022-12-10T03:36:09;34.50;;;21.03;;
64887;SDS011;51386;53.082;8.816;2022-12-10T03:38:37;33.67;;;20.30;;
64887;SDS011;51386;53.082;8.816;2022-12-10T03:41:05;30.53;;;19.23;;
64887;SDS011;51386;53.082;8.816;2022-12-10T03:43:33;30.70;;;20.97;;
64887;SDS011;51386;53.082;8.816;2022-12-10T03:46:00;33.93;;;21.07;;
64887;SDS011;51386;53.082;8.816;2022-12-10T03:48:28;31.27;;;20.43;;
64887;SDS011;51386;53.082;8.816;2022-12-10T03:50:55;30.90;;;20.37;;
64887;SDS011;51386;53.082;8.816;2022-12-10T03:53:22;28.20;;;17.90;;
64887;SDS011;51386;53.082;8.816;2022-12-10T03:55:49;30.97;;;20.70;;
64887;SDS011;51386;53.082;8.816;2022-12-10T03:58:16;26.60;;;18.77;;
64887;SDS011;51386;53.082;8.816;2022-12-10T04:00:45;31.60;;;19.93;;
64887;SDS011;51386;53.082;8.816;2022-12-10T04:03:13;29.70;;;19.80;;
64887;SDS011;51386;53.082;8.816;2022-12-10T04:05:41;30.20;;;19.57;;
64887;SDS011;51386;53.082;8.816;2022-12-10T04:08:08;28.53;;;19.40;;
64887;SDS011;51386;53.082;8.816;2022-12-10T04:10:35;27.67;;;19.90;;
64887;SDS011;51386;53.082;8.816;2022-12-10T04:13:03;30.13;;;20.07;;
64887;SDS011;51386;53.082;8.816;2022-12-10T04:15:48;31.00;;;19.13;;
64887;SDS011;51386;53.082;8.816;2022-12-10T04:18:34;24.33;;;18.40;;
64887;SDS011;51386;53.082;8.816;2022-12-10T04:21:02;31.60;;;20.53;;
64887;SDS011;51386;53.082;8.816;2022-12-10T04:23:49;30.97;;;20.90;;
64887;SDS011;51386;53.082;8.816;2022-12-10T04:26:34;26.83;;;18.63;;
64887;SDS011;51386;53.082;8.816;2022-12-10T04:29:19;26.30;;;16.30;;
64887;SDS011;51386;53.082;8.816;2022-12-10T04:31:48;24.37;;;16.70;;
64887;SDS011;51386;53.082;8.816;2022-12-10T04:34:15;26.67;;;18.13;;
64887;SDS011;51386;53.082;8.816;2022-12-10T04:36:43;27.00;;;19.00;;
64887;SDS011;51386;53.082;8.816;2022-12-10T04:39:11;27.60;;;18.47;;
64887;SDS011;51386;53.082;8.816;2022-12-10T04:41:40;22.70;;;16.07;;
64887;SDS011;51386;53.082;8.816;2022-12-10T04:44:09;22.60;;;16.13;;
64887;SDS011;51386;53.082;8.816;2022-12-10T04:46:37;21.33;;;14.00;;
64887;SDS011;51386;53.082;8.816;2022-12-10T04:49:04;24.90;;;15.80;;
64887;SDS011;51386;53.082;8.816;2022-12-10T04:51:32;22.90;;;15.40;;
64887;SDS011;51386;53.082;8.816;2022-12-10T04:54:01;23.50;;;16.30;;
64887;SDS011;51386;53.082;8.816;2022-12-10T04:56:28;23.27;;;15.93;;
64887;SDS011;51386;53.082;8.816;2022-12-10T04:58:56;16.03;;;11.63;;
64887;SDS011;51386;53.082;8.816;2022-12-10T05:01:24;17.20;;;12.53;;
64887;SDS011;51386;53.082;8.816;2022-12-10T05:03:53;21.70;;;14.80;;
64887;SDS011;51386;53.082;8.816;2022-12-10T05:06:20;22.23;;;16.43;;
64887;SDS011;51386;53.082;8.816;2022-12-10T05:08:47;23.30;;;16.93;;
64887;SDS011;51386;53.082;8.816;2022-12-10T05:11:16;19.43;;;13.70;;
64887;SDS011;51386;53.082;8.816;2022-12-10T05:13:45;11.53;;;9.83;;
64887;SDS011;51386;53.082;8.816;2022-12-10T05:16:14;12.53;;;9.93;;
64887;SDS011;51386;53.082;8.816;2022-12-10T05:18:44;15.90;;;11.80;;
64887;SDS011;51386;53.082;8.816;2022-12-10T05:21:12;19.53;;;13.63;;
64887;SDS011;51386;53.082;8.816;2022-12-10T05:23:42;21.40;;;14.80;;
64887;SDS011;51386;53.082;8.816;2022-12-10T05:26:13;22.33;;;14.90;;
64887;SDS011;51386;53.082;8.816;2022-12-10T05:28:44;20.93;;;15.47;;
64887;SDS011;51386;53.082;8.816;2022-12-10T05:31:14;18.97;;;12.70;;
64887;SDS011;51386;53.082;8.816;2022-12-10T05:33:43;18.63;;;12.13;;
64887;SDS011;51386;53.082;8.816;2022-12-10T05:36:11;19.27;;;13.80;;
64887;SDS011;51386;53.082;8.816;2022-12-10T05:38:41;21.03;;;14.50;;
64887;SDS011;51386;53.082;8.816;2022-12-10T05:41:11;17.40;;;12.80;;
64887;SDS011;51386;53.082;8.816;2022-12-10T05:43:41;19.43;;;13.70;;
64887;SDS011;51386;53.082;8.816;2022-12-10T05:46:11;23.87;;;14.90;;
64887;SDS011;51386;53.082;8.816;2022-12-10T05:48:41;21.93;;;14.97;;
64887;SDS011;51386;53.082;8.816;2022-12-10T05:51:08;21.30;;;15.27;;
64887;SDS011;51386;53.082;8.816;2022-12-10T05:53:38;19.47;;;13.53;;
64887;SDS011;51386;53.082;8.816;2022-12-10T05:56:07;19.87;;;14.90;;
64887;SDS011;51386;53.082;8.816;2022-12-10T05:58:37;21.37;;;15.47;;
64887;SDS011;51386;53.082;8.816;2022-12-10T06:01:07;22.67;;;16.40;;
64887;SDS011;51386;53.082;8.816;2022-12-10T06:03:37;23.73;;;16.03;;
64887;SDS011;51386;53.082;8.816;2022-12-10T06:06:04;27.70;;;17.33;;
64887;SDS011;51386;53.082;8.816;2022-12-10T06:08:32;24.53;;;16.13;;
64887;SDS011;51386;53.082;8.816;2022-12-10T06:11:01;21.70;;;14.47;;
64887;SDS011;51386;53.082;8.816;2022-12-10T06:13:29;22.63;;;14.70;;
64887;SDS011;51386;53.082;8.816;2022-12-10T06:15:55;18.60;;;13.00;;
64887;SDS011;51386;53.082;8.816;2022-12-10T06:18:24;17.90;;;12.63;;
64887;SDS011;51386;53.082;8.816;2022-12-10T06:20:51;20.63;;;14.30;;
64887;SDS011;51386;53.082;8.816;2022-12-10T06:23:18;24.10;;;15.83;;
64887;SDS011;51386;53.082;8.816;2022-12-10T06:25:45;24.27;;;16.13;;
64887;SDS011;51386;53.082;8.816;2022-12-10T06:28:12;25.27;;;16.93;;
64887;SDS011;51386;53.082;8.816;2022-12-10T06:30:39;24.53;;;16.70;;
64887;SDS011;51386;53.082;8.816;2022-12-10T06:33:06;23.80;;;16.17;;
64887;SDS011;51386;53.082;8.816;2022-12-10T06:35:34;24.03;;;15.70;;
64887;SDS011;51386;53.082;8.816;2022-12-10T06:38:03;26.07;;;17.73;;
64887;SDS011;51386;53.082;8.816;2022-12-10T06:40:30;15.73;;;11.33;;
64887;SDS011;51386;53.082;8.816;2022-12-10T06:42:57;13.57;;;10.53;;
64887;SDS011;51386;53.082;8.816;2022-12-10T06:45:24;20.40;;;13.83;;
64887;SDS011;51386;53.082;8.816;2022-12-10T06:47:51;23.07;;;16.10;;
64887;SDS011;51386;53.082;8.816;2022-12-10T06:50:18;27.00;;;17.83;;
64887;SDS011;51386;53.082;8.816;2022-12-10T06:52:46;24.73;;;16.67;;
64887;SDS011;51386;53.082;8.816;2022-12-10T06:55:20;24.10;;;17.00;;
64887;SDS011;51386;53.082;8.816;2022-12-10T06:57:47;27.27;;;18.13;;
64887;SDS011;51386;53.082;8.816;2022-12-10T07:00:17;25.33;;;17.53;;
64887;SDS011;51386;53.082;8.816;2022-12-10T07:02:47;33.20;;;21.60;;
64887;SDS011;51386;53.082;8.816;2022-12-10T07:05:15;30.87;;;20.97;;
64887;SDS011;51386;53.082;8.816;2022-12-10T07:07:42;29.70;;;19.77;;
64887;SDS011;51386;53.082;8.816;2022-12-10T07:10:11;30.77;;;21.07;;
64887;SDS011;51386;53.082;8.816;2022-12-10T07:12:39;28.47;;;17.97;;
64887;SDS011;51386;53.082;8.816;2022-12-10T07:15:07;34.70;;;21.17;;
64887;SDS011;51386;53.082;8.816;2022-12-10T07:17:34;33.37;;;20.50;;
64887;SDS011;51386;53.082;8.816;2022-12-10T07:20:02;32.10;;;20.47;;
64887;SDS011;51386;53.082;8.816;2022-12-10T07:22:29;34.77;;;22.80;;
64887;SDS011;51386;53.082;8.816;2022-12-10T07:24:56;32.03;;;20.83;;
64887;SDS011;51386;53.082;8.816;2022-12-10T07:27:25;33.30;;;20.30;;
64887;SDS011;51386;53.082;8.816;2022-12-10T07:29:52;32.03;;;19.93;;
64887;SDS011;51386;53.082;8.816;2022-12-10T07:32:19;34.63;;;19.97;;
64887;SDS011;51386;53.082;8.816;2022-12-10T07:34:45;33.13;;;21.87;;
64887;SDS011;51386;53.082;8.816;2022-12-10T07:37:12;34.20;;;20.50;;
64887;SDS011;51386;53.082;8.816;2022-12-10T07:39:39;27.77;;;18.63;;
64887;SDS011;51386;53.082;8.816;2022-12-10T07:42:09;28.53;;;18.90;;
64887;SDS011;51386;53.082;8.816;2022-12-10T07:44:37;28.87;;;17.90;;
64887;SDS011;51386;53.082;8.816;2022-12-10T07:47:04;29.53;;;18.90;;
64887;SDS011;51386;53.082;8.816;2022-12-10T07:49:31;28.97;;;19.37;;
64887;SDS011;51386;53.082;8.816;2022-12-10T07:51:58;30.50;;;19.43;;
64887;SDS011;51386;53.082;8.816;2022-12-10T07:54:25;26.53;;;18.70;;
64887;SDS011;51386;53.082;8.816;2022-12-10T07:56:52;29.77;;;18.77;;
64887;SDS011;51386;53.082;8.816;2022-12-10T07:59:19;25.60;;;17.77;;
64887;SDS011;51386;53.082;8.816;2022-12-10T08:01:47;22.70;;;15.63;;
64887;SDS011;51386;53.082;8.816;2022-12-10T08:04:15;25.77;;;16.73;;
64887;SDS011;51386;53.082;8.816;2022-12-10T08:06:42;26.17;;;18.43;;
64887;SDS011;51386;53.082;8.816;2022-12-10T08:09:10;26.47;;;17.90;;
64887;SDS011;51386;53.082;8.816;2022-12-10T08:11:38;22.87;;;15.47;;
64887;SDS011;51386;53.082;8.816;2022-12-10T08:14:05;17.67;;;13.40;;
64887;SDS011;51386;53.082;8.816;2022-12-10T08:16:32;25.80;;;17.40;;
64887;SDS011;51386;53.082;8.816;2022-12-10T08:19:00;26.73;;;17.03;;
64887;SDS011;51386;53.082;8.816;2022-12-10T08:21:28;26.43;;;17.07;;
64887;SDS011;51386;53.082;8.816;2022-12-10T08:23:57;34.23;;;20.87;;
64887;SDS011;51386;53.082;8.816;2022-12-10T08:26:27;28.67;;;18.50;;
64887;SDS011;51386;53.082;8.816;2022-12-10T08:28:56;32.03;;;18.90;;
64887;SDS011;51386;53.082;8.816;2022-12-10T08:31:25;30.00;;;20.57;;
64887;SDS011;51386;53.082;8.816;2022-12-10T08:34:00;31.53;;;18.93;;
64887;SDS011;51386;53.082;8.816;2022-12-10T08:36:27;26.27;;;18.50;;
64887;SDS011;51386;53.082;8.816;2022-12-10T08:38:56;31.37;;;20.83;;
64887;SDS011;51386;53.082;8.816;2022-12-10T08:41:23;29.10;;;19.73;;
64887;SDS011;51386;53.082;8.816;2022-12-10T08:43:51;28.97;;;18.93;;
64887;SDS011;51386;53.082;8.816;2022-12-10T08:46:18;31.27;;;19.80;;
64887;SDS011;51386;53.082;8.816;2022-12-10T08:48:46;33.00;;;20.07;;
64887;SDS011;51386;53.082;8.816;2022-12-10T08:51:15;81.37;;;44.83;;
64887;SDS011;51386;53.082;8.816;2022-12-10T08:53:44;33.43;;;22.33;;
64887;SDS011;51386;53.082;8.816;2022-12-10T08:56:12;35.00;;;21.37;;
64887;SDS011;51386;53.082;8.816;2022-12-10T08:58:39;32.80;;;20.27;;
64887;SDS011;51386;53.082;8.816;2022-12-10T09:01:07;33.30;;;22.23;;
64887;SDS011;51386;53.082;8.816;2022-12-10T09:03:36;39.27;;;22.87;;
64887;SDS011;51386;53.082;8.816;2022-12-10T09:06:03;32.67;;;22.37;;
64887;SDS011;51386;53.082;8.816;2022-12-10T09:08:36;22.63;;;16.17;;
64887;SDS011;51386;53.082;8.816;2022-12-10T09:11:04;30.43;;;19.27;;
64887;SDS011;51386;53.082;8.816;2022-12-10T09:13:33;52.87;;;37.43;;
64887;SDS011;51386;53.082;8.816;2022-12-10T09:16:00;33.80;;;20.60;;
64887;SDS011;51386;53.082;8.816;2022-12-10T09:18:27;30.13;;;19.80;;
64887;SDS011;51386;53.082;8.816;2022-12-10T09:20:54;32.73;;;20.50;;
64887;SDS011;51386;53.082;8.816;2022-12-10T09:23:21;30.40;;;20.83;;
64887;SDS011;51386;53.082;8.816;2022-12-10T09:25:50;34.33;;;20.70;;
64887;SDS011;51386;53.082;8.816;2022-12-10T09:28:18;23.23;;;15.80;;
64887;SDS011;51386;53.082;8.816;2022-12-10T09:30:45;22.20;;;16.00;;
64887;SDS011;51386;53.082;8.816;2022-12-10T09:33:21;27.73;;;18.47;;
64887;SDS011;51386;53.082;8.816;2022-12-10T09:35:48;27.87;;;18.37;;
64887;SDS011;51386;53.082;8.816;2022-12-10T09:38:15;24.97;;;17.77;;
64887;SDS011;51386;53.082;8.816;2022-12-10T09:40:43;30.10;;;18.87;;
64887;SDS011;51386;53.082;8.816;2022-12-10T09:43:19;22.30;;;16.07;;
64887;SDS011;51386;53.082;8.816;2022-12-10T09:46:00;21.03;;;14.47;;
64887;SDS011;51386;53.082;8.816;2022-12-10T09:48:40;22.37;;;16.63;;
64887;SDS011;51386;53.082;8.816;2022-12-10T09:51:25;28.00;;;17.80;;
64887;SDS011;51386;53.082;8.816;2022-12-10T09:54:00;25.93;;;17.70;;
64887;SDS011;51386;53.082;8.816;2022-12-10T09:56:37;30.70;;;19.27;;
64887;SDS011;51386;53.082;8.816;2022-12-10T09:59:15;22.60;;;16.37;;
64887;SDS011;51386;53.082;8.816;2022-12-10T10:01:48;23.03;;;15.97;;
64887;SDS011;51386;53.082;8.816;2022-12-10T10:04:28;24.57;;;16.63;;
64887;SDS011;51386;53.082;8.816;2022-12-10T10:06:55;24.00;;;16.63;;
64887;SDS011;51386;53.082;8.816;2022-12-10T10:09:23;24.43;;;16.43;;
64887;SDS011;51386;53.082;8.816;2022-12-10T10:11:51;26.50;;;18.13;;
64887;SDS011;51386;53.082;8.816;2022-12-10T10:14:22;24.77;;;16.73;;
64887;SDS011;51386;53.082;8.816;2022-12-10T10:16:54;21.07;;;13.70;;
64887;SDS011;51386;53.082;8.816;2022-12-10T10:19:28;18.73;;;12.97;;
64887;SDS011;51386;53.082;8.816;2022-12-10T10:22:00;19.57;;;13.63;;
64887;SDS011;51386;53.082;8.816;2022-12-10T10:24:28;22.73;;;15.27;;
64887;SDS011;51386;53.082;8.816;2022-12-10T10:27:08;26.03;;;18.73;;
64887;SDS011;51386;53.082;8.816;2022-12-10T10:29:42;22.77;;;14.43;;
64887;SDS011;51386;53.082;8.816;2022-12-10T10:32:16;18.20;;;12.20;;
64887;SDS011;51386;53.082;8.816;2022-12-10T10:34:45;17.60;;;11.87;;
64887;SDS011;51386;53.082;8.816;2022-12-10T10:37:19;20.30;;;13.67;;
64887;SDS011;51386;53.082;8.816;2022-12-10T10:39:51;19.00;;;13.27;;
64887;SDS011;51386;53.082;8.816;2022-12-10T10:42:25;18.10;;;12.70;;
64887;SDS011;51386;53.082;8.816;2022-12-10T10:45:09;20.97;;;15.07;;
64887;SDS011;51386;53.082;8.816;2022-12-10T10:48:03;19.93;;;14.60;;
64887;SDS011;51386;53.082;8.816;2022-12-10T10:50:37;18.63;;;12.20;;
64887;SDS011;51386;53.082;8.816;2022-12-10T10:53:22;14.90;;;10.17;;
64887;SDS011;51386;53.082;8.816;2022-12-10T10:56:13;11.23;;;8.97;;
64887;SDS011;51386;53.082;8.816;2022-12-10T10:58:47;9.23;;;7.60;;
64887;SDS011;51386;53.082;8.816;2022-12-10T11:01:22;13.70;;;10.27;;
64887;SDS011;51386;53.082;8.816;2022-12-10T11:03:54;15.33;;;10.20;;
64887;SDS011;51386;53.082;8.816;2022-12-10T11:06:24;16.40;;;12.67;;
64887;SDS011;51386;53.082;8.816;2022-12-10T11:08:54;19.70;;;13.30;;
64887;SDS011;51386;53.082;8.816;2022-12-10T11:11:25;18.50;;;12.57;;
64887;SDS011;51386;53.082;8.816;2022-12-10T11:14:13;20.97;;;14.33;;
64887;SDS011;51386;53.082;8.816;2022-12-10T11:16:50;24.23;;;15.80;;
64887;SDS011;51386;53.082;8.816;2022-12-10T11:19:27;20.57;;;14.87;;
64887;SDS011;51386;53.082;8.816;2022-12-10T11:21:54;22.30;;;14.90;;
64887;SDS011;51386;53.082;8.816;2022-12-10T11:24:21;24.27;;;16.10;;
64887;SDS011;51386;53.082;8.816;2022-12-10T11:26:59;23.70;;;16.00;;
64887;SDS011;51386;53.082;8.816;2022-12-10T11:29:43;19.70;;;12.23;;
64887;SDS011;51386;53.082;8.816;2022-12-10T11:32:29;21.50;;;14.07;;
64887;SDS011;51386;53.082;8.816;2022-12-10T11:35:24;20.63;;;13.57;;
64887;SDS011;51386;53.082;8.816;2022-12-10T11:38:09;21.43;;;13.53;;
64887;SDS011;51386;53.082;8.816;2022-12-10T11:40:56;22.70;;;13.90;;
64887;SDS011;51386;53.082;8.816;2022-12-10T11:43:42;23.77;;;14.77;;
64887;SDS011;51386;53.082;8.816;2022-12-10T11:46:43;22.73;;;15.17;;
64887;SDS011;51386;53.082;8.816;2022-12-10T11:49:37;18.13;;;12.27;;
64887;SDS011;51386;53.082;8.816;2022-12-10T11:52:14;18.97;;;12.80;;
64887;SDS011;51386;53.082;8.816;2022-12-10T11:54:58;18.40;;;11.67;;
64887;SDS011;51386;53.082;8.816;2022-12-10T11:57:43;15.77;;;11.90;;
64887;SDS011;51386;53.082;8.816;2022-12-10T12:00:19;17.33;;;12.03;;
64887;SDS011;51386;53.082;8.816;2022-12-10T12:03:03;20.47;;;14.23;;
64887;SDS011;51386;53.082;8.816;2022-12-10T12:05:56;13.10;;;9.87;;
64887;SDS011;51386;53.082;8.816;2022-12-10T12:08:48;15.10;;;9.20;;
64887;SDS011;51386;53.082;8.816;2022-12-10T12:11:30;13.10;;;9.70;;
64887;SDS011;51386;53.082;8.816;2022-12-10T12:14:16;13.67;;;8.67;;
64887;SDS011;51386;53.082;8.816;2022-12-10T12:16:55;14.17;;;10.10;;
64887;SDS011;51386;53.082;8.816;2022-12-10T12:19:32;14.90;;;10.20;;
64887;SDS011;51386;53.082;8.816;2022-12-10T12:22:06;15.03;;;10.57;;
64887;SDS011;51386;53.082;8.816;2022-12-10T12:24:41;13.73;;;8.80;;
64887;SDS011;51386;53.082;8.816;2022-12-10T12:27:19;17.97;;;10.13;;
64887;SDS011;51386;53.082;8.816;2022-12-10T12:29:57;11.93;;;8.47;;
64887;SDS011;51386;53.082;8.816;2022-12-10T12:32:37;14.13;;;9.53;;
64887;SDS011;51386;53.082;8.816;2022-12-10T12:35:14;16.90;;;11.53;;
64887;SDS011;51386;53.082;8.816;2022-12-10T12:37:50;13.47;;;9.67;;
64887;SDS011;51386;53.082;8.816;2022-12-10T12:40:27;17.87;;;10.53;;
64887;SDS011;51386;53.082;8.816;2022-12-10T12:42:57;14.07;;;9.73;;
64887;SDS011;51386;53.082;8.816;2022-12-10T12:45:31;13.57;;;9.77;;
64887;SDS011;51386;53.082;8.816;2022-12-10T12:48:06;17.17;;;12.13;;
64887;SDS011;51386;53.082;8.816;2022-12-10T12:50:46;17.13;;;11.80;;
64887;SDS011;51386;53.082;8.816;2022-12-10T12:53:19;18.03;;;12.20;;
64887;SDS011;51386;53.082;8.816;2022-12-10T12:55:52;16.37;;;12.40;;
64887;SDS011;51386;53.082;8.816;2022-12-10T12:58:31;18.23;;;12.03;;
64887;SDS011;51386;53.082;8.816;2022-12-10T13:01:12;16.47;;;10.70;;
64887;SDS011;51386;53.082;8.816;2022-12-10T13:03:50;18.07;;;11.37;;
64887;SDS011;51386;53.082;8.816;2022-12-10T13:06:20;15.33;;;10.07;;
64887;SDS011;51386;53.082;8.816;2022-12-10T13:08:59;21.20;;;12.67;;
64887;SDS011;51386;53.082;8.816;2022-12-10T13:14:56;17.50;;;11.00;;
64887;SDS011;51386;53.082;8.816;2022-12-10T13:20:34;15.47;;;10.57;;
64887;SDS011;51386;53.082;8.816;2022-12-10T13:26:16;15.83;;;11.43;;
64887;SDS011;51386;53.082;8.816;2022-12-10T13:28:51;16.47;;;10.00;;
64887;SDS011;51386;53.082;8.816;2022-12-10T13:31:33;15.97;;;11.43;;
64887;SDS011;51386;53.082;8.816;2022-12-10T13:34:19;18.13;;;12.13;;
64887;SDS011;51386;53.082;8.816;2022-12-10T13:37:04;17.70;;;12.37;;
64887;SDS011;51386;53.082;8.816;2022-12-10T13:39:46;16.10;;;10.93;;
64887;SDS011;51386;53.082;8.816;2022-12-10T13:42:29;17.97;;;12.23;;
64887;SDS011;51386;53.082;8.816;2022-12-10T13:45:25;18.47;;;11.33;;
64887;SDS011;51386;53.082;8.816;2022-12-10T13:48:18;24.73;;;15.20;;
64887;SDS011;51386;53.082;8.816;2022-12-10T13:51:14;18.47;;;12.33;;
64887;SDS011;51386;53.082;8.816;2022-12-10T13:53:58;21.93;;;13.47;;
64887;SDS011;51386;53.082;8.816;2022-12-10T13:56:58;20.47;;;13.70;;
64887;SDS011;51386;53.082;8.816;2022-12-10T13:59:47;18.37;;;12.20;;
64887;SDS011;51386;53.082;8.816;2022-12-10T14:02:41;20.30;;;12.80;;
64887;SDS011;51386;53.082;8.816;2022-12-10T14:05:39;18.87;;;12.60;;
64887;SDS011;51386;53.082;8.816;2022-12-10T14:08:22;19.33;;;13.73;;
64887;SDS011;51386;53.082;8.816;2022-12-10T14:10:54;21.63;;;13.77;;
64887;SDS011;51386;53.082;8.816;2022-12-10T14:13:30;19.47;;;14.23;;
64887;SDS011;51386;53.082;8.816;2022-12-10T14:16:09;22.83;;;14.93;;
64887;SDS011;51386;53.082;8.816;2022-12-10T14:18:41;24.03;;;15.10;;
64887;SDS011;51386;53.082;8.816;2022-12-10T14:21:13;23.83;;;16.07;;
64887;SDS011;51386;53.082;8.816;2022-12-10T14:23:43;20.83;;;14.57;;
64887;SDS011;51386;53.082;8.816;2022-12-10T14:26:20;24.57;;;16.93;;
64887;SDS011;51386;53.082;8.816;2022-12-10T14:28:54;23.50;;;16.07;;
64887;SDS011;51386;53.082;8.816;2022-12-10T14:31:27;25.70;;;15.57;;
64887;SDS011;51386;53.082;8.816;2022-12-10T14:34:00;24.50;;;15.43;;
64887;SDS011;51386;53.082;8.816;2022-12-10T14:36:31;21.53;;;14.33;;
64887;SDS011;51386;53.082;8.816;2022-12-10T14:39:03;21.40;;;14.57;;
64887;SDS011;51386;53.082;8.816;2022-12-10T14:41:38;25.83;;;17.33;;
64887;SDS011;51386;53.082;8.816;2022-12-10T14:44:06;25.47;;;14.77;;
64887;SDS011;51386;53.082;8.816;2022-12-10T14:46:43;21.73;;;15.20;;
64887;SDS011;51386;53.082;8.816;2022-12-10T14:49:13;25.50;;;15.87;;
64887;SDS011;51386;53.082;8.816;2022-12-10T14:51:45;23.73;;;15.60;;
64887;SDS011;51386;53.082;8.816;2022-12-10T14:54:26;25.20;;;16.67;;
64887;SDS011;51386;53.082;8.816;2022-12-10T14:56:57;25.10;;;16.50;;
64887;SDS011;51386;53.082;8.816;2022-12-10T14:59:30;23.20;;;15.53;;
64887;SDS011;51386;53.082;8.816;2022-12-10T15:02:11;26.67;;;16.87;;